Buoy 46770

sailwx.info

Track history (hours):
 
Tides and Currents Weather Stations Pressure Air Temp Water Temp Dewpoint Dewpoint Depression Visibility Wind Speed Wind Dir Waves Ship Positions

Drifting buoy 46770

Last reported at 2016-Sep-27 07:00 UTC. Time now 2016-Sep-27 12:12 UTC.
Position N 40°42' W 148°31'.

Barometer 1032.2 mb
Water temperature 21.1 ° C

Date/timePositionNaut miles runAvg speedWind from/ knotsBaromVisibWave heightAir tempDewpointWater temp
2016-Sep-27 07:00N 40°42' W 148°31'2 2.1 1032.2 21.1
2016-Sep-27 06:00N 40°44' W 148°31'0 0.5 1032.1 21.1
2016-Sep-27 05:00N 40°45' W 148°31'1 0.7 1031.6 21.1
2016-Sep-27 04:00N 40°45' W 148°32'1 0.8 1031.2 21.1
2016-Sep-27 03:00N 40°46' W 148°33'1 0.7 1030.8 21.1
2016-Sep-27 02:00N 40°46' W 148°33'1 1.0 1030.6 21.1
2016-Sep-27 01:00N 40°46' W 148°35'5 2.3 1030.6 21.2
2016-Sep-26 23:00N 40°43' W 148°39'3 1.4 1030.9 21.1
2016-Sep-26 21:00N 40°40' W 148°37'1 0.4 1031.2 21.1
2016-Sep-26 18:00N 40°40' W 148°36'2 1.7 1030.4 21.1
2016-Sep-26 17:00N 40°39' W 148°34'3 2.6 1029.9 21.1
2016-Sep-26 16:00N 40°39' W 148°31'1 0.7 1029.3 21.1
2016-Sep-26 14:00N 40°40' W 148°29'2 2.4 1028.1 21.2
2016-Sep-26 13:00N 40°42' W 148°29'5 5.1 1027.8 21.2
2016-Sep-26 12:00N 40°46' W 148°33'2 0.4 1027.4 21.2
2016-Sep-26 07:00N 40°45' W 148°36'2 0.8 1026.3 21.3
2016-Sep-26 05:00N 40°44' W 148°37'0 0.0 1025.0 21.3
2016-Sep-26 04:00N 40°44' W 148°37'1 0.5 1024.1 21.3
2016-Sep-26 03:00N 40°44' W 148°37'3 2.5 1023.7 21.3
2016-Sep-26 02:00N 40°41' W 148°36'0 0.5 1023.0 21.4
2016-Sep-26 01:00N 40°42' W 148°36'4 1.8 1022.6 21.4
2016-Sep-25 23:00N 40°40' W 148°32'0 0.0 1022.3 21.4
2016-Sep-25 22:00N 40°40' W 148°32'2 2.2 1022.1 21.4
2016-Sep-25 21:00N 40°42' W 148°31'2 1.0 1021.5 21.4
2016-Sep-25 19:00N 40°43' W 148°28'2 1.9 1020.2 21.3
2016-Sep-25 18:00N 40°45' W 148°29'0 0.2 1019.1 21.3
2016-Sep-25 17:00N 40°45' W 148°29'1 0.6 1018.3 21.3
2016-Sep-25 16:00N 40°45' W 148°29'2 2.1 1017.3 21.3
2016-Sep-25 15:00N 40°47' W 148°31'3 2.6 1016.4 21.3
2016-Sep-25 14:00N 40°48' W 148°34'0 0.0 1015.7 21.4
2016-Sep-25 13:00N 40°48' W 148°34'5 5.5 1015.1 21.4
2016-Sep-25 12:00N 40°44' W 148°39'2 0.4 1014.7 21.4
2016-Sep-25 07:00N 40°42' W 148°39'0 0.1 1014.0 21.5
2016-Sep-25 05:00N 40°42' W 148°39'2 2.1 1014.4 21.5
2016-Sep-25 04:00N 40°41' W 148°36'2 0.8 1013.8 21.5
2016-Sep-25 02:00N 40°41' W 148°34'2 1.8 1013.2 21.5
2016-Sep-25 01:00N 40°43' W 148°34'2 2.0 1012.6 21.5
2016-Sep-25 00:00N 40°44' W 148°31'0 0.0 1013.0 21.5
2016-Sep-24 23:00N 40°44' W 148°31'5 4.9 1013.4 21.5
2016-Sep-24 22:00N 40°47' W 148°36'2 1.1 1013.6 21.5
2016-Sep-24 20:00N 40°47' W 148°39'2 1.1 1012.3 21.6
2016-Sep-24 18:00N 40°46' W 148°42'1 0.6 1012.3 21.5
2016-Sep-24 16:00N 40°46' W 148°43'1 1.0 1012.5 21.6
2016-Sep-24 15:00N 40°45' W 148°44'2 2.0 1012.2 21.6
2016-Sep-24 14:00N 40°43' W 148°45'2 1.1 1012.8 21.6
2016-Sep-24 12:00N 40°42' W 148°43'1 0.2 1013.2 21.6
2016-Sep-24 06:00N 40°43' W 148°43'3 1.5 1014.2 21.7
2016-Sep-24 04:00N 40°46' W 148°45'5 2.4 1013.8 21.7
2016-Sep-24 02:00N 40°46' W 148°51'0 0.0 1013.6 21.8
2016-Sep-24 01:00N 40°46' W 148°51'0 0.0 1013.4 21.8
2016-Sep-24 00:00N 40°46' W 148°51'3 1.6 1013.4 21.8
2016-Sep-23 22:00N 40°44' W 148°54'3 0.6 1014.3 21.8
2016-Sep-23 17:00N 40°42' W 148°53'0 0.4 1014.8 21.7
2016-Sep-23 16:00N 40°42' W 148°53'1 0.9 1015.1 21.7
2016-Sep-23 15:00N 40°42' W 148°52'0 0.3 1015.2 21.7
2016-Sep-23 14:00N 40°43' W 148°52'3 1.4 1015.3 21.7
2016-Sep-23 12:00N 40°44' W 148°55'0 0.0 1016.6 21.7
2016-Sep-23 08:00N 40°44' W 148°55'1 0.7 1018.6 21.7
2016-Sep-23 07:00N 40°44' W 148°56'1 0.8 1018.2 21.7
2016-Sep-23 06:00N 40°43' W 148°56'1 0.6 1018.0 21.7
2016-Sep-23 05:00N 40°43' W 148°57'1 0.6 1017.5 21.8
2016-Sep-23 03:00N 40°42' W 148°57'2 1.7 1017.1 21.8
2016-Sep-23 02:00N 40°40' W 148°56'0 0.0 1016.9 21.8
2016-Sep-23 01:00N 40°40' W 148°56'1 0.9 1016.4 21.8
2016-Sep-23 00:00N 40°40' W 148°54'0 0.0 1016.0 21.8
2016-Sep-22 22:00N 40°40' W 148°54'2 0.9 1016.5 21.7
2016-Sep-22 20:00N 40°42' W 148°53'1 0.6 1015.5 21.7
2016-Sep-22 18:00N 40°43' W 148°52'1 1.1 1013.9 21.7
2016-Sep-22 17:00N 40°43' W 148°53'0 0.0 1012.9 21.7
2016-Sep-22 16:00N 40°43' W 148°53'0 0.5 1012.1 21.7
2016-Sep-22 15:00N 40°44' W 148°54'5 1.3 1011.9 21.8
2016-Sep-22 11:00N 40°43' W 149°00'0 0.0 1012.4 21.8
2016-Sep-22 07:00N 40°43' W 149°00'0 0.4 1014.2 21.9
2016-Sep-22 06:00N 40°43' W 149°01'1 0.8 1014.4 21.9
2016-Sep-22 05:00N 40°43' W 149°02'1 0.7 1014.5 21.9
2016-Sep-22 04:00N 40°43' W 149°03'1 0.6 1014.6 21.9
2016-Sep-22 03:00N 40°44' W 149°02'1 0.6 1014.7 22.0
2016-Sep-22 02:00N 40°43' W 149°02'1 0.6 1014.8 22.0
2016-Sep-22 01:00N 40°44' W 149°02'0 0.0 1015.2 22.0
2016-Sep-22 00:00N 40°44' W 149°02'2 0.9 1015.8 22.0
2016-Sep-21 22:00N 40°44' W 149°05'1 0.3 1017.3 22.0
2016-Sep-21 19:00N 40°44' W 149°06'2 1.2 1018.3 22.0
2016-Sep-21 17:00N 40°43' W 149°09'0 0.0 1018.7 22.0
2016-Sep-21 16:00N 40°43' W 149°09'0 0.4 1018.7 21.9
2016-Sep-21 15:00N 40°43' W 149°09'0 0.3 1018.4 22.0
2016-Sep-21 14:00N 40°43' W 149°09'1 1.0 1018.6 22.0
2016-Sep-21 13:00N 40°42' W 149°10'0 0.0 1019.2 22.0
2016-Sep-21 12:00N 40°42' W 149°10'0 0.0 1019.4 22.0
2016-Sep-21 11:00N 40°42' W 149°10'1 0.3 1019.9 22.0
2016-Sep-21 08:00N 40°41' W 149°10'0 0.2 1020.9 22.0
2016-Sep-21 07:00N 40°41' W 149°10'0 0.2 1020.8 22.0
2016-Sep-21 06:00N 40°41' W 149°10'0 0.4 1020.9 22.0
2016-Sep-21 05:00N 40°41' W 149°09'0 0.3 1020.5 22.0
2016-Sep-21 04:00N 40°41' W 149°10'0 0.3 1020.4 22.0
2016-Sep-21 03:00N 40°41' W 149°10'1 0.8 1020.6 22.0
2016-Sep-21 02:00N 40°41' W 149°11'0 0.0 1020.9 22.0
2016-Sep-21 01:00N 40°41' W 149°11'0 0.5 1021.2 22.0
2016-Sep-21 00:00N 40°41' W 149°11'0 0.0 1021.5 22.0
2016-Sep-20 23:00N 40°41' W 149°11'3 0.7 1022.1 22.0
2016-Sep-20 19:00N 40°40' W 149°14'1 0.6 1023.5 22.0
2016-Sep-20 18:00N 40°39' W 149°14'1 0.6 1023.3 22.0
2016-Sep-20 17:00N 40°39' W 149°14'0 0.3 1023.4 22.0
2016-Sep-20 16:00N 40°39' W 149°15'0 0.4 1023.6 22.0
2016-Sep-20 15:00N 40°38' W 149°14'0 0.3 1023.8 22.0
2016-Sep-20 14:00N 40°38' W 149°14'1 1.0 1024.3 22.1
2016-Sep-20 13:00N 40°37' W 149°14'2 0.3 1024.8 22.1
2016-Sep-20 08:00N 40°36' W 149°13'1 0.6 1026.8 22.2
2016-Sep-20 07:00N 40°36' W 149°13'1 0.7 1026.6 22.2
2016-Sep-20 06:00N 40°35' W 149°13'1 0.9 1026.7 22.2
2016-Sep-20 05:00N 40°35' W 149°12'1 0.3 1026.6 22.2
2016-Sep-20 03:00N 40°35' W 149°13'0 0.3 1026.2 22.2
2016-Sep-20 02:00N 40°35' W 149°13'0 0.4 1026.3 22.3
2016-Sep-20 01:00N 40°35' W 149°13'1 0.7 1026.7 22.3
2016-Sep-20 00:00N 40°35' W 149°14'0 0.0 1027.1 22.3
2016-Sep-19 23:00N 40°35' W 149°14'2 0.7 1027.6 22.3
2016-Sep-19 20:00N 40°32' W 149°14'0 0.1 1028.3 22.3
2016-Sep-19 18:00N 40°32' W 149°14'1 0.6 1027.5 22.3
2016-Sep-19 17:00N 40°32' W 149°13'1 0.5 1027.5 22.3
2016-Sep-19 16:00N 40°32' W 149°13'1 1.0 1027.8 22.3
2016-Sep-19 15:00N 40°31' W 149°12'0 0.0 1027.0 22.3
2016-Sep-19 14:00N 40°31' W 149°12'1 0.9 1027.4 22.4
2016-Sep-19 13:00N 40°32' W 149°11'1 0.4 1028.1 22.4
2016-Sep-19 11:00N 40°32' W 149°12'0 0.0 1028.5 22.4
2016-Sep-19 08:00N 40°32' W 149°12'1 0.8 1029.9 22.4
2016-Sep-19 07:00N 40°32' W 149°13'0 0.1 1029.8 22.4
2016-Sep-19 06:00N 40°32' W 149°13'0 0.4 1029.4 22.5
2016-Sep-19 05:00N 40°32' W 149°13'1 0.2 1028.8 22.5
2016-Sep-19 01:00N 40°31' W 149°12'0 0.0 1029.0 22.5
2016-Sep-19 00:00N 40°31' W 149°12'0 0.0 1028.8 22.5
2016-Sep-18 23:00N 40°31' W 149°12'1 0.2 1029.0 22.5
2016-Sep-18 17:00N 40°31' W 149°11'0 0.0 1029.3 22.4
2016-Sep-18 16:00N 40°31' W 149°11'1 0.5 1028.9 22.5
2016-Sep-18 15:00N 40°32' W 149°11'0 0.4 1028.5 22.5
2016-Sep-18 14:00N 40°32' W 149°11'0 0.5 1028.2 22.5
2016-Sep-18 13:00N 40°32' W 149°12'0 0.3 1028.0 22.5
2016-Sep-18 12:00N 40°32' W 149°12'0 0.1 1027.8 22.5
2016-Sep-18 11:00N 40°32' W 149°12'0 0.1 1027.6 22.5
2016-Sep-18 08:00N 40°31' W 149°12'1 0.8 1027.0 22.5
2016-Sep-18 07:00N 40°31' W 149°13'1 0.6 1026.9 22.5
2016-Sep-18 06:00N 40°31' W 149°13'1 1.3 1026.5 22.6
2016-Sep-18 05:00N 40°31' W 149°11'0 0.1 1025.5 22.6
2016-Sep-18 03:00N 40°31' W 149°11'0 0.3 1025.0 22.6
2016-Sep-18 02:00N 40°31' W 149°11'1 1.3 1024.8 22.6
2016-Sep-18 01:00N 40°32' W 149°11'1 0.3 1024.3 22.6
2016-Sep-17 23:00N 40°33' W 149°11'1 0.2 1023.6 22.7
2016-Sep-17 20:00N 40°33' W 149°11'0 0.5 1022.9 22.6
2016-Sep-17 19:00N 40°33' W 149°12'0 0.1 1022.3 22.5
2016-Sep-17 18:00N 40°33' W 149°12'0 0.2 1021.6 22.5
2016-Sep-17 17:00N 40°33' W 149°12'1 0.6 1020.9 22.5
2016-Sep-17 16:00N 40°33' W 149°13'0 0.0 1020.3 22.5
2016-Sep-17 14:00N 40°33' W 149°13'1 0.6 1019.4 22.5
2016-Sep-17 13:00N 40°32' W 149°12'2 1.8 1019.2 22.5
2016-Sep-17 12:00N 40°33' W 149°14'1 0.2 1019.5 22.5
2016-Sep-17 07:00N 40°34' W 149°15'   1020.1 22.6
Track history (hours):
 
Tides and Currents Weather Stations Pressure Air Temp Water Temp Dewpoint Dewpoint Depression Visibility Wind Speed Wind Dir Waves Ship Positions

Drifting buoy 46770

Last reported at 2016-Sep-27 07:00 UTC. Time now 2016-Sep-27 12:12 UTC.
Position N 40°42' W 148°31'.

Barometer 1032.2 mb
Water temperature 21.1 ° C

Date/timePositionNaut miles runAvg speedWind from/ knotsBaromVisibWave heightAir tempDewpointWater temp
2016-Sep-27 07:00N 40°42' W 148°31'2 2.1 1032.2 21.1
2016-Sep-27 06:00N 40°44' W 148°31'0 0.5 1032.1 21.1
2016-Sep-27 05:00N 40°45' W 148°31'1 0.7 1031.6 21.1
2016-Sep-27 04:00N 40°45' W 148°32'1 0.8 1031.2 21.1
2016-Sep-27 03:00N 40°46' W 148°33'1 0.7 1030.8 21.1
2016-Sep-27 02:00N 40°46' W 148°33'1 1.0 1030.6 21.1
2016-Sep-27 01:00N 40°46' W 148°35'5 2.3 1030.6 21.2
2016-Sep-26 23:00N 40°43' W 148°39'3 1.4 1030.9 21.1
2016-Sep-26 21:00N 40°40' W 148°37'1 0.4 1031.2 21.1
2016-Sep-26 18:00N 40°40' W 148°36'2 1.7 1030.4 21.1
2016-Sep-26 17:00N 40°39' W 148°34'3 2.6 1029.9 21.1
2016-Sep-26 16:00N 40°39' W 148°31'1 0.7 1029.3 21.1
2016-Sep-26 14:00N 40°40' W 148°29'2 2.4 1028.1 21.2
2016-Sep-26 13:00N 40°42' W 148°29'5 5.1 1027.8 21.2
2016-Sep-26 12:00N 40°46' W 148°33'2 0.4 1027.4 21.2
2016-Sep-26 07:00N 40°45' W 148°36'2 0.8 1026.3 21.3
2016-Sep-26 05:00N 40°44' W 148°37'0 0.0 1025.0 21.3
2016-Sep-26 04:00N 40°44' W 148°37'1 0.5 1024.1 21.3
2016-Sep-26 03:00N 40°44' W 148°37'3 2.5 1023.7 21.3
2016-Sep-26 02:00N 40°41' W 148°36'0 0.5 1023.0 21.4
2016-Sep-26 01:00N 40°42' W 148°36'4 1.8 1022.6 21.4
2016-Sep-25 23:00N 40°40' W 148°32'0 0.0 1022.3 21.4
2016-Sep-25 22:00N 40°40' W 148°32'2 2.2 1022.1 21.4
2016-Sep-25 21:00N 40°42' W 148°31'2 1.0 1021.5 21.4
2016-Sep-25 19:00N 40°43' W 148°28'2 1.9 1020.2 21.3
2016-Sep-25 18:00N 40°45' W 148°29'0 0.2 1019.1 21.3
2016-Sep-25 17:00N 40°45' W 148°29'1 0.6 1018.3 21.3
2016-Sep-25 16:00N 40°45' W 148°29'2 2.1 1017.3 21.3
2016-Sep-25 15:00N 40°47' W 148°31'3 2.6 1016.4 21.3
2016-Sep-25 14:00N 40°48' W 148°34'0 0.0 1015.7 21.4
2016-Sep-25 13:00N 40°48' W 148°34'5 5.5 1015.1 21.4
2016-Sep-25 12:00N 40°44' W 148°39'2 0.4 1014.7 21.4
2016-Sep-25 07:00N 40°42' W 148°39'0 0.1 1014.0 21.5
2016-Sep-25 05:00N 40°42' W 148°39'2 2.1 1014.4 21.5
2016-Sep-25 04:00N 40°41' W 148°36'2 0.8 1013.8 21.5
2016-Sep-25 02:00N 40°41' W 148°34'2 1.8 1013.2 21.5
2016-Sep-25 01:00N 40°43' W 148°34'2 2.0 1012.6 21.5
2016-Sep-25 00:00N 40°44' W 148°31'0 0.0 1013.0 21.5
2016-Sep-24 23:00N 40°44' W 148°31'5 4.9 1013.4 21.5
2016-Sep-24 22:00N 40°47' W 148°36'2 1.1 1013.6 21.5
2016-Sep-24 20:00N 40°47' W 148°39'2 1.1 1012.3 21.6
2016-Sep-24 18:00N 40°46' W 148°42'1 0.6 1012.3 21.5
2016-Sep-24 16:00N 40°46' W 148°43'1 1.0 1012.5 21.6
2016-Sep-24 15:00N 40°45' W 148°44'2 2.0 1012.2 21.6
2016-Sep-24 14:00N 40°43' W 148°45'2 1.1 1012.8 21.6
2016-Sep-24 12:00N 40°42' W 148°43'1 0.2 1013.2 21.6
2016-Sep-24 06:00N 40°43' W 148°43'3 1.5 1014.2 21.7
2016-Sep-24 04:00N 40°46' W 148°45'5 2.4 1013.8 21.7
2016-Sep-24 02:00N 40°46' W 148°51'0 0.0 1013.6 21.8
2016-Sep-24 01:00N 40°46' W 148°51'0 0.0 1013.4 21.8
2016-Sep-24 00:00N 40°46' W 148°51'3 1.6 1013.4 21.8
2016-Sep-23 22:00N 40°44' W 148°54'3 0.6 1014.3 21.8
2016-Sep-23 17:00N 40°42' W 148°53'0 0.4 1014.8 21.7
2016-Sep-23 16:00N 40°42' W 148°53'1 0.9 1015.1 21.7
2016-Sep-23 15:00N 40°42' W 148°52'0 0.3 1015.2 21.7
2016-Sep-23 14:00N 40°43' W 148°52'3 1.4 1015.3 21.7
2016-Sep-23 12:00N 40°44' W 148°55'0 0.0 1016.6 21.7
2016-Sep-23 08:00N 40°44' W 148°55'1 0.7 1018.6 21.7
2016-Sep-23 07:00N 40°44' W 148°56'1 0.8 1018.2 21.7
2016-Sep-23 06:00N 40°43' W 148°56'1 0.6 1018.0 21.7
2016-Sep-23 05:00N 40°43' W 148°57'1 0.6 1017.5 21.8
2016-Sep-23 03:00N 40°42' W 148°57'2 1.7 1017.1 21.8
2016-Sep-23 02:00N 40°40' W 148°56'0 0.0 1016.9 21.8
2016-Sep-23 01:00N 40°40' W 148°56'1 0.9 1016.4 21.8
2016-Sep-23 00:00N 40°40' W 148°54'0 0.0 1016.0 21.8
2016-Sep-22 22:00N 40°40' W 148°54'2 0.9 1016.5 21.7
2016-Sep-22 20:00N 40°42' W 148°53'1 0.6 1015.5 21.7
2016-Sep-22 18:00N 40°43' W 148°52'1 1.1 1013.9 21.7
2016-Sep-22 17:00N 40°43' W 148°53'0 0.0 1012.9 21.7
2016-Sep-22 16:00N 40°43' W 148°53'0 0.5 1012.1 21.7
2016-Sep-22 15:00N 40°44' W 148°54'5 1.3 1011.9 21.8
2016-Sep-22 11:00N 40°43' W 149°00'0 0.0 1012.4 21.8
2016-Sep-22 07:00N 40°43' W 149°00'0 0.4 1014.2 21.9
2016-Sep-22 06:00N 40°43' W 149°01'1 0.8 1014.4 21.9
2016-Sep-22 05:00N 40°43' W 149°02'1 0.7 1014.5 21.9
2016-Sep-22 04:00N 40°43' W 149°03'1 0.6 1014.6 21.9
2016-Sep-22 03:00N 40°44' W 149°02'1 0.6 1014.7 22.0
2016-Sep-22 02:00N 40°43' W 149°02'1 0.6 1014.8 22.0
2016-Sep-22 01:00N 40°44' W 149°02'0 0.0 1015.2 22.0
2016-Sep-22 00:00N 40°44' W 149°02'2 0.9 1015.8 22.0
2016-Sep-21 22:00N 40°44' W 149°05'1 0.3 1017.3 22.0
2016-Sep-21 19:00N 40°44' W 149°06'2 1.2 1018.3 22.0
2016-Sep-21 17:00N 40°43' W 149°09'0 0.0 1018.7 22.0
2016-Sep-21 16:00N 40°43' W 149°09'0 0.4 1018.7 21.9
2016-Sep-21 15:00N 40°43' W 149°09'0 0.3 1018.4 22.0
2016-Sep-21 14:00N 40°43' W 149°09'1 1.0 1018.6 22.0
2016-Sep-21 13:00N 40°42' W 149°10'0 0.0 1019.2 22.0
2016-Sep-21 12:00N 40°42' W 149°10'0 0.0 1019.4 22.0
2016-Sep-21 11:00N 40°42' W 149°10'1 0.3 1019.9 22.0
2016-Sep-21 08:00N 40°41' W 149°10'0 0.2 1020.9 22.0
2016-Sep-21 07:00N 40°41' W 149°10'0 0.2 1020.8 22.0
2016-Sep-21 06:00N 40°41' W 149°10'0 0.4 1020.9 22.0
2016-Sep-21 05:00N 40°41' W 149°09'0 0.3 1020.5 22.0
2016-Sep-21 04:00N 40°41' W 149°10'0 0.3 1020.4 22.0
2016-Sep-21 03:00N 40°41' W 149°10'1 0.8 1020.6 22.0
2016-Sep-21 02:00N 40°41' W 149°11'0 0.0 1020.9 22.0
2016-Sep-21 01:00N 40°41' W 149°11'0 0.5 1021.2 22.0
2016-Sep-21 00:00N 40°41' W 149°11'0 0.0 1021.5 22.0
2016-Sep-20 23:00N 40°41' W 149°11'3 0.7 1022.1 22.0
2016-Sep-20 19:00N 40°40' W 149°14'1 0.6 1023.5 22.0
2016-Sep-20 18:00N 40°39' W 149°14'1 0.6 1023.3 22.0
2016-Sep-20 17:00N 40°39' W 149°14'0 0.3 1023.4 22.0
2016-Sep-20 16:00N 40°39' W 149°15'0 0.4 1023.6 22.0
2016-Sep-20 15:00N 40°38' W 149°14'0 0.3 1023.8 22.0
2016-Sep-20 14:00N 40°38' W 149°14'1 1.0 1024.3 22.1
2016-Sep-20 13:00N 40°37' W 149°14'2 0.3 1024.8 22.1
2016-Sep-20 08:00N 40°36' W 149°13'1 0.6 1026.8 22.2
2016-Sep-20 07:00N 40°36' W 149°13'1 0.7 1026.6 22.2
2016-Sep-20 06:00N 40°35' W 149°13'1 0.9 1026.7 22.2
2016-Sep-20 05:00N 40°35' W 149°12'1 0.3 1026.6 22.2
2016-Sep-20 03:00N 40°35' W 149°13'0 0.3 1026.2 22.2
2016-Sep-20 02:00N 40°35' W 149°13'0 0.4 1026.3 22.3
2016-Sep-20 01:00N 40°35' W 149°13'1 0.7 1026.7 22.3
2016-Sep-20 00:00N 40°35' W 149°14'0 0.0 1027.1 22.3
2016-Sep-19 23:00N 40°35' W 149°14'2 0.7 1027.6 22.3
2016-Sep-19 20:00N 40°32' W 149°14'0 0.1 1028.3 22.3
2016-Sep-19 18:00N 40°32' W 149°14'1 0.6 1027.5 22.3
2016-Sep-19 17:00N 40°32' W 149°13'1 0.5 1027.5 22.3
2016-Sep-19 16:00N 40°32' W 149°13'1 1.0 1027.8 22.3
2016-Sep-19 15:00N 40°31' W 149°12'0 0.0 1027.0 22.3
2016-Sep-19 14:00N 40°31' W 149°12'1 0.9 1027.4 22.4
2016-Sep-19 13:00N 40°32' W 149°11'1 0.4 1028.1 22.4
2016-Sep-19 11:00N 40°32' W 149°12'0 0.0 1028.5 22.4
2016-Sep-19 08:00N 40°32' W 149°12'1 0.8 1029.9 22.4
2016-Sep-19 07:00N 40°32' W 149°13'0 0.1 1029.8 22.4
2016-Sep-19 06:00N 40°32' W 149°13'0 0.4 1029.4 22.5
2016-Sep-19 05:00N 40°32' W 149°13'1 0.2 1028.8 22.5
2016-Sep-19 01:00N 40°31' W 149°12'0 0.0 1029.0 22.5
2016-Sep-19 00:00N 40°31' W 149°12'0 0.0 1028.8 22.5
2016-Sep-18 23:00N 40°31' W 149°12'1 0.2 1029.0 22.5
2016-Sep-18 17:00N 40°31' W 149°11'0 0.0 1029.3 22.4
2016-Sep-18 16:00N 40°31' W 149°11'1 0.5 1028.9 22.5
2016-Sep-18 15:00N 40°32' W 149°11'0 0.4 1028.5 22.5
2016-Sep-18 14:00N 40°32' W 149°11'0 0.5 1028.2 22.5
2016-Sep-18 13:00N 40°32' W 149°12'0 0.3 1028.0 22.5
2016-Sep-18 12:00N 40°32' W 149°12'0 0.1 1027.8 22.5
2016-Sep-18 11:00N 40°32' W 149°12'0 0.1 1027.6 22.5
2016-Sep-18 08:00N 40°31' W 149°12'1 0.8 1027.0 22.5
2016-Sep-18 07:00N 40°31' W 149°13'1 0.6 1026.9 22.5
2016-Sep-18 06:00N 40°31' W 149°13'1 1.3 1026.5 22.6
2016-Sep-18 05:00N 40°31' W 149°11'0 0.1 1025.5 22.6
2016-Sep-18 03:00N 40°31' W 149°11'0 0.3 1025.0 22.6
2016-Sep-18 02:00N 40°31' W 149°11'1 1.3 1024.8 22.6
2016-Sep-18 01:00N 40°32' W 149°11'1 0.3 1024.3 22.6
2016-Sep-17 23:00N 40°33' W 149°11'1 0.2 1023.6 22.7
2016-Sep-17 20:00N 40°33' W 149°11'0 0.5 1022.9 22.6
2016-Sep-17 19:00N 40°33' W 149°12'0 0.1 1022.3 22.5
2016-Sep-17 18:00N 40°33' W 149°12'0 0.2 1021.6 22.5
2016-Sep-17 17:00N 40°33' W 149°12'1 0.6 1020.9 22.5
2016-Sep-17 16:00N 40°33' W 149°13'0 0.0 1020.3 22.5
2016-Sep-17 14:00N 40°33' W 149°13'1 0.6 1019.4 22.5
2016-Sep-17 13:00N 40°32' W 149°12'2 1.8 1019.2 22.5
2016-Sep-17 12:00N 40°33' W 149°14'1 0.2 1019.5 22.5
2016-Sep-17 07:00N 40°34' W 149°15'   1020.1 22.6

Dump ship's entire track history